sensor_id;sensor_type;location;lat;lon;timestamp;temperature;humidity
60242;SHT30;46103;52.076;113.488;2023-04-25T00:00:28;-0.36;37.15
60242;SHT30;46103;52.076;113.488;2023-04-25T00:03:32;-0.22;36.28
60242;SHT30;46103;52.076;113.488;2023-04-25T00:06:36;0.06;35.95
60242;SHT30;46103;52.076;113.488;2023-04-25T00:09:42;0.20;35.66
60242;SHT30;46103;52.076;113.488;2023-04-25T00:12:45;0.31;35.71
60242;SHT30;46103;52.076;113.488;2023-04-25T00:16:03;0.37;35.69
60242;SHT30;46103;52.076;113.488;2023-04-25T00:19:07;0.50;35.25
60242;SHT30;46103;52.076;113.488;2023-04-25T00:22:10;0.84;34.62
60242;SHT30;46103;52.076;113.488;2023-04-25T00:25:15;1.02;34.04
60242;SHT30;46103;52.076;113.488;2023-04-25T00:28:18;1.12;33.47
60242;SHT30;46103;52.076;113.488;2023-04-25T00:31:22;1.36;33.22
60242;SHT30;46103;52.076;113.488;2023-04-25T00:34:26;1.48;32.74
60242;SHT30;46103;52.076;113.488;2023-04-25T00:37:29;1.52;32.19
60242;SHT30;46103;52.076;113.488;2023-04-25T00:40:33;1.85;32.09
60242;SHT30;46103;52.076;113.488;2023-04-25T00:43:37;1.94;31.82
60242;SHT30;46103;52.076;113.488;2023-04-25T00:46:41;2.12;31.18
60242;SHT30;46103;52.076;113.488;2023-04-25T00:49:44;2.40;30.29
60242;SHT30;46103;52.076;113.488;2023-04-25T00:52:47;2.64;29.74
60242;SHT30;46103;52.076;113.488;2023-04-25T00:55:51;2.61;29.32
60242;SHT30;46103;52.076;113.488;2023-04-25T00:58:54;2.68;29.52
60242;SHT30;46103;52.076;113.488;2023-04-25T01:01:59;2.87;29.57
60242;SHT30;46103;52.076;113.488;2023-04-25T01:05:04;3.13;29.36
60242;SHT30;46103;52.076;113.488;2023-04-25T01:08:10;3.03;29.26
60242;SHT30;46103;52.076;113.488;2023-04-25T01:11:13;3.01;28.40
60242;SHT30;46103;52.076;113.488;2023-04-25T01:14:17;3.02;27.24
60242;SHT30;46103;52.076;113.488;2023-04-25T01:17:21;3.23;27.30
60242;SHT30;46103;52.076;113.488;2023-04-25T01:20:26;3.47;26.36
60242;SHT30;46103;52.076;113.488;2023-04-25T01:23:31;3.50;26.45
60242;SHT30;46103;52.076;113.488;2023-04-25T01:26:37;3.68;26.32
60242;SHT30;46103;52.076;113.488;2023-04-25T01:29:42;3.89;25.87
60242;SHT30;46103;52.076;113.488;2023-04-25T01:32:47;4.08;25.43
60242;SHT30;46103;52.076;113.488;2023-04-25T01:35:52;4.17;25.06
60242;SHT30;46103;52.076;113.488;2023-04-25T01:38:55;4.28;24.73
60242;SHT30;46103;52.076;113.488;2023-04-25T01:42:00;4.20;25.19
60242;SHT30;46103;52.076;113.488;2023-04-25T01:45:06;4.40;24.97
60242;SHT30;46103;52.076;113.488;2023-04-25T01:48:13;4.67;24.93
60242;SHT30;46103;52.076;113.488;2023-04-25T01:51:18;5.01;24.27
60242;SHT30;46103;52.076;113.488;2023-04-25T01:54:22;5.01;24.24
60242;SHT30;46103;52.076;113.488;2023-04-25T01:57:26;5.43;24.13
60242;SHT30;46103;52.076;113.488;2023-04-25T02:00:30;5.75;23.89
60242;SHT30;46103;52.076;113.488;2023-04-25T02:03:34;5.88;23.25
60242;SHT30;46103;52.076;113.488;2023-04-25T02:06:42;6.11;23.40
60242;SHT30;46103;52.076;113.488;2023-04-25T02:09:46;6.04;23.06
60242;SHT30;46103;52.076;113.488;2023-04-25T02:12:52;6.22;22.96
60242;SHT30;46103;52.076;113.488;2023-04-25T02:16:11;5.93;22.78
60242;SHT30;46103;52.076;113.488;2023-04-25T02:19:15;6.12;22.30
60242;SHT30;46103;52.076;113.488;2023-04-25T02:22:18;6.37;22.20
60242;SHT30;46103;52.076;113.488;2023-04-25T02:25:23;6.73;21.92
60242;SHT30;46103;52.076;113.488;2023-04-25T02:28:28;6.97;22.03
60242;SHT30;46103;52.076;113.488;2023-04-25T02:31:31;7.37;21.58
60242;SHT30;46103;52.076;113.488;2023-04-25T02:34:35;7.49;21.57
60242;SHT30;46103;52.076;113.488;2023-04-25T02:37:42;7.70;21.56
60242;SHT30;46103;52.076;113.488;2023-04-25T02:40:47;7.93;21.10
60242;SHT30;46103;52.076;113.488;2023-04-25T02:43:55;7.87;21.16
60242;SHT30;46103;52.076;113.488;2023-04-25T02:46:58;8.01;21.09
60242;SHT30;46103;52.076;113.488;2023-04-25T02:50:04;8.02;20.55
60242;SHT30;46103;52.076;113.488;2023-04-25T02:53:10;8.09;20.24
60242;SHT30;46103;52.076;113.488;2023-04-25T02:56:20;7.98;19.86
60242;SHT30;46103;52.076;113.488;2023-04-25T02:59:23;7.83;19.53
60242;SHT30;46103;52.076;113.488;2023-04-25T03:02:28;8.11;20.14
60242;SHT30;46103;52.076;113.488;2023-04-25T03:05:35;8.18;18.84
60242;SHT30;46103;52.076;113.488;2023-04-25T03:08:40;8.45;19.07
60242;SHT30;46103;52.076;113.488;2023-04-25T03:11:45;8.54;18.57
60242;SHT30;46103;52.076;113.488;2023-04-25T03:14:49;8.74;18.51
60242;SHT30;46103;52.076;113.488;2023-04-25T03:17:54;8.97;18.50
60242;SHT30;46103;52.076;113.488;2023-04-25T03:20:59;8.54;16.65
60242;SHT30;46103;52.076;113.488;2023-04-25T03:24:05;8.25;15.53
60242;SHT30;46103;52.076;113.488;2023-04-25T03:27:11;8.08;14.23
60242;SHT30;46103;52.076;113.488;2023-04-25T03:30:15;8.32;15.65
60242;SHT30;46103;52.076;113.488;2023-04-25T03:33:20;8.83;15.52
60242;SHT30;46103;52.076;113.488;2023-04-25T03:36:25;9.24;15.63
60242;SHT30;46103;52.076;113.488;2023-04-25T03:39:30;9.57;16.00
60242;SHT30;46103;52.076;113.488;2023-04-25T03:42:34;10.02;15.16
60242;SHT30;46103;52.076;113.488;2023-04-25T03:45:40;10.07;15.10
60242;SHT30;46103;52.076;113.488;2023-04-25T03:48:46;9.91;13.81
60242;SHT30;46103;52.076;113.488;2023-04-25T03:51:56;10.04;14.07
60242;SHT30;46103;52.076;113.488;2023-04-25T03:55:03;10.01;14.21
60242;SHT30;46103;52.076;113.488;2023-04-25T03:58:08;9.60;15.05
60242;SHT30;46103;52.076;113.488;2023-04-25T04:01:13;9.53;14.85
60242;SHT30;46103;52.076;113.488;2023-04-25T04:04:18;9.45;14.82
60242;SHT30;46103;52.076;113.488;2023-04-25T04:07:22;9.22;15.43
60242;SHT30;46103;52.076;113.488;2023-04-25T04:10:30;9.73;14.97
60242;SHT30;46103;52.076;113.488;2023-04-25T04:13:34;10.10;15.23
60242;SHT30;46103;52.076;113.488;2023-04-25T04:16:39;10.37;14.43
60242;SHT30;46103;52.076;113.488;2023-04-25T04:19:43;10.11;14.57
60242;SHT30;46103;52.076;113.488;2023-04-25T04:22:53;10.28;14.71
60242;SHT30;46103;52.076;113.488;2023-04-25T04:25:59;10.49;14.83
60242;SHT30;46103;52.076;113.488;2023-04-25T04:29:16;10.89;14.12
60242;SHT30;46103;52.076;113.488;2023-04-25T04:32:39;10.97;13.93
60242;SHT30;46103;52.076;113.488;2023-04-25T04:35:45;10.59;13.90
60242;SHT30;46103;52.076;113.488;2023-04-25T04:38:51;10.60;13.78
60242;SHT30;46103;52.076;113.488;2023-04-25T04:42:16;10.84;13.50
60242;SHT30;46103;52.076;113.488;2023-04-25T04:45:37;10.96;13.34
60242;SHT30;46103;52.076;113.488;2023-04-25T04:48:58;11.30;13.22
60242;SHT30;46103;52.076;113.488;2023-04-25T04:52:25;11.52;12.99
60242;SHT30;46103;52.076;113.488;2023-04-25T04:55:58;11.70;12.55
60242;SHT30;46103;52.076;113.488;2023-04-25T04:59:25;12.18;12.43
60242;SHT30;46103;52.076;113.488;2023-04-25T05:02:54;12.69;12.43
60242;SHT30;46103;52.076;113.488;2023-04-25T05:06:18;12.73;12.21
60242;SHT30;46103;52.076;113.488;2023-04-25T05:09:52;12.58;12.25
60242;SHT30;46103;52.076;113.488;2023-04-25T05:13:14;12.88;12.24
60242;SHT30;46103;52.076;113.488;2023-04-25T05:16:37;12.97;12.30
60242;SHT30;46103;52.076;113.488;2023-04-25T05:20:16;12.59;12.49
60242;SHT30;46103;52.076;113.488;2023-04-25T05:23:24;12.82;12.57
60242;SHT30;46103;52.076;113.488;2023-04-25T05:26:35;12.92;12.50
60242;SHT30;46103;52.076;113.488;2023-04-25T05:29:56;13.24;12.22
60242;SHT30;46103;52.076;113.488;2023-04-25T05:33:04;13.59;11.96
60242;SHT30;46103;52.076;113.488;2023-04-25T05:36:08;13.93;11.99
60242;SHT30;46103;52.076;113.488;2023-04-25T05:39:12;14.09;11.65
60242;SHT30;46103;52.076;113.488;2023-04-25T05:42:45;13.74;12.05
60242;SHT30;46103;52.076;113.488;2023-04-25T05:46:16;14.16;11.60
60242;SHT30;46103;52.076;113.488;2023-04-25T05:49:46;14.41;11.66
60242;SHT30;46103;52.076;113.488;2023-04-25T05:53:15;14.47;11.27
60242;SHT30;46103;52.076;113.488;2023-04-25T05:56:27;14.56;11.43
60242;SHT30;46103;52.076;113.488;2023-04-25T05:59:30;14.84;11.26
60242;SHT30;46103;52.076;113.488;2023-04-25T06:02:35;15.06;11.31
60242;SHT30;46103;52.076;113.488;2023-04-25T06:05:39;15.10;10.86
60242;SHT30;46103;52.076;113.488;2023-04-25T06:08:43;14.79;10.87
60242;SHT30;46103;52.076;113.488;2023-04-25T06:11:47;14.68;11.10
60242;SHT30;46103;52.076;113.488;2023-04-25T06:14:51;14.99;11.15
60242;SHT30;46103;52.076;113.488;2023-04-25T06:17:55;14.99;10.96
60242;SHT30;46103;52.076;113.488;2023-04-25T06:20:59;15.26;11.02
60242;SHT30;46103;52.076;113.488;2023-04-25T06:24:04;15.50;10.80
60242;SHT30;46103;52.076;113.488;2023-04-25T06:27:08;15.87;10.83
60242;SHT30;46103;52.076;113.488;2023-04-25T06:30:12;16.06;10.57
60242;SHT30;46103;52.076;113.488;2023-04-25T06:33:16;15.64;10.65
60242;SHT30;46103;52.076;113.488;2023-04-25T06:36:21;15.46;10.70
60242;SHT30;46103;52.076;113.488;2023-04-25T06:39:35;15.77;10.85
60242;SHT30;46103;52.076;113.488;2023-04-25T06:42:43;16.12;10.65
60242;SHT30;46103;52.076;113.488;2023-04-25T06:46:19;16.59;10.46
60242;SHT30;46103;52.076;113.488;2023-04-25T06:49:24;16.34;10.29
60242;SHT30;46103;52.076;113.488;2023-04-25T06:52:28;16.49;10.49
60242;SHT30;46103;52.076;113.488;2023-04-25T06:55:32;16.70;10.58
60242;SHT30;46103;52.076;113.488;2023-04-25T06:59:05;17.47;10.54
60242;SHT30;46103;52.076;113.488;2023-04-25T07:02:11;17.76;10.32
60242;SHT30;46103;52.076;113.488;2023-04-25T07:05:17;18.46;10.03
60242;SHT30;46103;52.076;113.488;2023-04-25T07:08:21;18.79;9.81
60242;SHT30;46103;52.076;113.488;2023-04-25T07:11:26;19.73;9.59
60242;SHT30;46103;52.076;113.488;2023-04-25T07:14:31;20.56;9.45
60242;SHT30;46103;52.076;113.488;2023-04-25T07:17:37;20.68;9.19
60242;SHT30;46103;52.076;113.488;2023-04-25T07:20:41;21.19;9.07
60242;SHT30;46103;52.076;113.488;2023-04-25T07:23:47;21.75;8.96
60242;SHT30;46103;52.076;113.488;2023-04-25T07:26:55;22.46;8.69
60242;SHT30;46103;52.076;113.488;2023-04-25T07:30:17;22.99;8.58
60242;SHT30;46103;52.076;113.488;2023-04-25T07:33:21;23.19;8.54
60242;SHT30;46103;52.076;113.488;2023-04-25T07:36:27;23.26;8.62
60242;SHT30;46103;52.076;113.488;2023-04-25T07:39:34;23.81;8.56
60242;SHT30;46103;52.076;113.488;2023-04-25T07:42:38;23.81;8.57
60242;SHT30;46103;52.076;113.488;2023-04-25T07:45:45;23.05;8.70
60242;SHT30;46103;52.076;113.488;2023-04-25T07:48:51;22.61;9.00
60242;SHT30;46103;52.076;113.488;2023-04-25T07:51:56;22.57;8.97
60242;SHT30;46103;52.076;113.488;2023-04-25T07:55:01;22.43;9.18
60242;SHT30;46103;52.076;113.488;2023-04-25T07:58:15;22.71;9.04
60242;SHT30;46103;52.076;113.488;2023-04-25T08:01:29;22.32;9.01
60242;SHT30;46103;52.076;113.488;2023-04-25T08:04:36;23.15;8.90
60242;SHT30;46103;52.076;113.488;2023-04-25T08:07:43;24.01;8.70
60242;SHT30;46103;52.076;113.488;2023-04-25T08:10:48;24.40;8.42
60242;SHT30;46103;52.076;113.488;2023-04-25T08:13:52;25.17;8.34
60242;SHT30;46103;52.076;113.488;2023-04-25T08:16:56;25.91;8.05
60242;SHT30;46103;52.076;113.488;2023-04-25T08:20:02;26.32;8.12
60242;SHT30;46103;52.076;113.488;2023-04-25T08:23:08;24.98;8.14
60242;SHT30;46103;52.076;113.488;2023-04-25T08:26:25;23.45;8.64
60242;SHT30;46103;52.076;113.488;2023-04-25T08:29:29;22.72;8.97
60242;SHT30;46103;52.076;113.488;2023-04-25T08:32:35;22.13;9.25
60242;SHT30;46103;52.076;113.488;2023-04-25T08:36:13;22.54;9.15
60242;SHT30;46103;52.076;113.488;2023-04-25T08:39:37;23.79;8.93
60242;SHT30;46103;52.076;113.488;2023-04-25T08:43:00;24.61;8.69
60242;SHT30;46103;52.076;113.488;2023-04-25T08:46:08;25.17;8.41
60242;SHT30;46103;52.076;113.488;2023-04-25T08:49:28;24.77;8.47
60242;SHT30;46103;52.076;113.488;2023-04-25T08:52:36;24.21;8.73
60242;SHT30;46103;52.076;113.488;2023-04-25T08:55:41;23.19;9.08
60242;SHT30;46103;52.076;113.488;2023-04-25T08:58:48;22.39;9.35
60242;SHT30;46103;52.076;113.488;2023-04-25T09:01:58;21.90;9.59
60242;SHT30;46103;52.076;113.488;2023-04-25T09:05:06;21.78;9.79
60242;SHT30;46103;52.076;113.488;2023-04-25T09:08:13;22.17;9.77
60242;SHT30;46103;52.076;113.488;2023-04-25T09:11:17;21.98;9.75
60242;SHT30;46103;52.076;113.488;2023-04-25T09:14:27;21.06;10.06
60242;SHT30;46103;52.076;113.488;2023-04-25T09:17:37;20.42;10.35
60242;SHT30;46103;52.076;113.488;2023-04-25T09:20:46;19.79;10.67
60242;SHT30;46103;52.076;113.488;2023-04-25T09:24:03;19.39;11.01
60242;SHT30;46103;52.076;113.488;2023-04-25T09:27:08;19.17;11.07
60242;SHT30;46103;52.076;113.488;2023-04-25T09:30:15;18.90;10.95
60242;SHT30;46103;52.076;113.488;2023-04-25T09:33:33;18.60;11.26
60242;SHT30;46103;52.076;113.488;2023-04-25T09:36:42;18.21;11.56
60242;SHT30;46103;52.076;113.488;2023-04-25T09:39:59;17.80;11.96
60242;SHT30;46103;52.076;113.488;2023-04-25T09:43:26;17.40;12.05
60242;SHT30;46103;52.076;113.488;2023-04-25T09:46:34;17.04;12.25
60242;SHT30;46103;52.076;113.488;2023-04-25T09:49:45;16.74;12.51
60242;SHT30;46103;52.076;113.488;2023-04-25T09:53:03;16.49;12.86
60242;SHT30;46103;52.076;113.488;2023-04-25T09:56:35;16.19;12.80
60242;SHT30;46103;52.076;113.488;2023-04-25T09:59:47;15.95;12.96
60242;SHT30;46103;52.076;113.488;2023-04-25T10:02:51;15.78;13.14
60242;SHT30;46103;52.076;113.488;2023-04-25T10:06:19;15.57;13.35
60242;SHT30;46103;52.076;113.488;2023-04-25T10:09:26;15.42;13.55
60242;SHT30;46103;52.076;113.488;2023-04-25T10:12:33;15.30;13.72
60242;SHT30;46103;52.076;113.488;2023-04-25T10:15:37;15.15;14.20
60242;SHT30;46103;52.076;113.488;2023-04-25T10:18:42;14.98;14.56
60242;SHT30;46103;52.076;113.488;2023-04-25T10:22:20;14.95;14.99
60242;SHT30;46103;52.076;113.488;2023-04-25T10:25:25;14.93;15.01
60242;SHT30;46103;52.076;113.488;2023-04-25T10:28:28;14.79;15.05
60242;SHT30;46103;52.076;113.488;2023-04-25T10:31:32;14.60;15.39
60242;SHT30;46103;52.076;113.488;2023-04-25T10:34:41;14.24;17.16
60242;SHT30;46103;52.076;113.488;2023-04-25T10:37:58;14.10;17.09
60242;SHT30;46103;52.076;113.488;2023-04-25T10:41:03;14.20;16.41
60242;SHT30;46103;52.076;113.488;2023-04-25T10:44:08;14.20;16.34
60242;SHT30;46103;52.076;113.488;2023-04-25T10:47:12;13.96;16.58
60242;SHT30;46103;52.076;113.488;2023-04-25T10:50:16;13.95;16.86
60242;SHT30;46103;52.076;113.488;2023-04-25T10:53:24;13.89;17.32
60242;SHT30;46103;52.076;113.488;2023-04-25T10:56:30;13.68;17.55
60242;SHT30;46103;52.076;113.488;2023-04-25T10:59:35;13.65;17.70
60242;SHT30;46103;52.076;113.488;2023-04-25T11:02:42;13.57;17.45
60242;SHT30;46103;52.076;113.488;2023-04-25T11:05:50;13.48;17.48
60242;SHT30;46103;52.076;113.488;2023-04-25T11:09:01;13.36;17.74
60242;SHT30;46103;52.076;113.488;2023-04-25T11:12:07;13.34;18.10
60242;SHT30;46103;52.076;113.488;2023-04-25T11:15:12;13.20;18.05
60242;SHT30;46103;52.076;113.488;2023-04-25T11:18:16;13.07;18.67
60242;SHT30;46103;52.076;113.488;2023-04-25T11:21:20;12.82;18.38
60242;SHT30;46103;52.076;113.488;2023-04-25T11:24:29;12.81;18.72
60242;SHT30;46103;52.076;113.488;2023-04-25T11:27:32;12.78;18.28
60242;SHT30;46103;52.076;113.488;2023-04-25T11:30:35;12.61;18.04
60242;SHT30;46103;52.076;113.488;2023-04-25T11:33:39;12.51;18.45
60242;SHT30;46103;52.076;113.488;2023-04-25T11:36:45;12.44;18.31
60242;SHT30;46103;52.076;113.488;2023-04-25T11:39:49;12.31;18.19
60242;SHT30;46103;52.076;113.488;2023-04-25T11:42:52;12.21;18.19
60242;SHT30;46103;52.076;113.488;2023-04-25T11:45:57;12.10;17.90
60242;SHT30;46103;52.076;113.488;2023-04-25T11:49:00;11.98;17.82
60242;SHT30;46103;52.076;113.488;2023-04-25T11:52:06;11.86;17.75
60242;SHT30;46103;52.076;113.488;2023-04-25T11:55:17;11.80;17.99
60242;SHT30;46103;52.076;113.488;2023-04-25T11:58:21;11.72;18.16
60242;SHT30;46103;52.076;113.488;2023-04-25T12:01:32;11.58;18.44
60242;SHT30;46103;52.076;113.488;2023-04-25T12:04:36;11.54;18.54
60242;SHT30;46103;52.076;113.488;2023-04-25T12:07:42;11.51;18.65
60242;SHT30;46103;52.076;113.488;2023-04-25T12:10:46;11.48;18.53
60242;SHT30;46103;52.076;113.488;2023-04-25T12:13:52;11.42;18.63
60242;SHT30;46103;52.076;113.488;2023-04-25T12:17:00;11.38;18.91
60242;SHT30;46103;52.076;113.488;2023-04-25T12:20:10;11.14;19.76
60242;SHT30;46103;52.076;113.488;2023-04-25T12:23:15;10.94;19.99
60242;SHT30;46103;52.076;113.488;2023-04-25T12:26:19;10.87;20.00
60242;SHT30;46103;52.076;113.488;2023-04-25T12:29:25;10.75;20.90
60242;SHT30;46103;52.076;113.488;2023-04-25T12:32:37;10.38;21.43
60242;SHT30;46103;52.076;113.488;2023-04-25T12:35:40;10.22;21.67
60242;SHT30;46103;52.076;113.488;2023-04-25T12:38:45;10.22;21.13
60242;SHT30;46103;52.076;113.488;2023-04-25T12:41:50;10.14;21.76
60242;SHT30;46103;52.076;113.488;2023-04-25T12:44:54;10.07;22.20
60242;SHT30;46103;52.076;113.488;2023-04-25T12:47:57;9.95;22.18
60242;SHT30;46103;52.076;113.488;2023-04-25T12:51:03;9.77;21.81
60242;SHT30;46103;52.076;113.488;2023-04-25T12:54:07;9.54;22.59
60242;SHT30;46103;52.076;113.488;2023-04-25T12:57:12;9.32;22.87
60242;SHT30;46103;52.076;113.488;2023-04-25T13:00:16;9.19;23.08
60242;SHT30;46103;52.076;113.488;2023-04-25T13:03:22;9.07;23.62
60242;SHT30;46103;52.076;113.488;2023-04-25T13:06:30;8.85;23.86
60242;SHT30;46103;52.076;113.488;2023-04-25T13:09:34;8.59;24.17
60242;SHT30;46103;52.076;113.488;2023-04-25T13:12:39;8.42;24.41
60242;SHT30;46103;52.076;113.488;2023-04-25T13:15:43;8.21;25.39
60242;SHT30;46103;52.076;113.488;2023-04-25T13:18:46;7.84;25.73
60242;SHT30;46103;52.076;113.488;2023-04-25T13:21:50;7.63;25.74
60242;SHT30;46103;52.076;113.488;2023-04-25T13:24:54;7.53;25.36
60242;SHT30;46103;52.076;113.488;2023-04-25T13:27:58;7.47;24.93
60242;SHT30;46103;52.076;113.488;2023-04-25T13:31:02;7.42;24.60
60242;SHT30;46103;52.076;113.488;2023-04-25T13:34:05;7.33;24.45
60242;SHT30;46103;52.076;113.488;2023-04-25T13:37:09;7.26;25.12
60242;SHT30;46103;52.076;113.488;2023-04-25T13:40:13;7.16;26.08
60242;SHT30;46103;52.076;113.488;2023-04-25T13:43:21;7.09;25.27
60242;SHT30;46103;52.076;113.488;2023-04-25T13:46:25;6.95;26.24
60242;SHT30;46103;52.076;113.488;2023-04-25T13:49:48;6.85;26.85
60242;SHT30;46103;52.076;113.488;2023-04-25T13:52:52;6.76;26.06
60242;SHT30;46103;52.076;113.488;2023-04-25T13:55:56;6.69;26.84
60242;SHT30;46103;52.076;113.488;2023-04-25T13:59:00;6.58;27.06
60242;SHT30;46103;52.076;113.488;2023-04-25T14:02:03;6.52;26.66
60242;SHT30;46103;52.076;113.488;2023-04-25T14:05:07;6.46;26.03
60242;SHT30;46103;52.076;113.488;2023-04-25T14:08:12;6.44;26.95
60242;SHT30;46103;52.076;113.488;2023-04-25T14:11:17;6.40;26.52
60242;SHT30;46103;52.076;113.488;2023-04-25T14:14:24;6.29;27.51
60242;SHT30;46103;52.076;113.488;2023-04-25T14:17:28;6.21;28.49
60242;SHT30;46103;52.076;113.488;2023-04-25T14:20:34;6.08;29.29
60242;SHT30;46103;52.076;113.488;2023-04-25T14:23:37;5.99;29.92
60242;SHT30;46103;52.076;113.488;2023-04-25T14:26:42;5.81;29.79
60242;SHT30;46103;52.076;113.488;2023-04-25T14:29:46;5.70;29.51
60242;SHT30;46103;52.076;113.488;2023-04-25T14:32:59;5.54;29.27
60242;SHT30;46103;52.076;113.488;2023-04-25T14:36:03;5.44;29.24
60242;SHT30;46103;52.076;113.488;2023-04-25T14:39:07;5.30;29.08
60242;SHT30;46103;52.076;113.488;2023-04-25T14:42:12;5.25;29.70
60242;SHT30;46103;52.076;113.488;2023-04-25T14:45:15;5.19;29.87
60242;SHT30;46103;52.076;113.488;2023-04-25T14:48:19;5.15;30.00
60242;SHT30;46103;52.076;113.488;2023-04-25T14:51:23;5.05;29.01
60242;SHT30;46103;52.076;113.488;2023-04-25T14:54:27;4.96;29.57
60242;SHT30;46103;52.076;113.488;2023-04-25T14:57:32;4.89;30.13
60242;SHT30;46103;52.076;113.488;2023-04-25T15:00:40;4.84;30.52
60242;SHT30;46103;52.076;113.488;2023-04-25T15:03:45;4.75;30.81
60242;SHT30;46103;52.076;113.488;2023-04-25T15:06:51;4.64;30.24
60242;SHT30;46103;52.076;113.488;2023-04-25T15:09:55;4.65;30.64
60242;SHT30;46103;52.076;113.488;2023-04-25T15:13:00;4.44;32.97
60242;SHT30;46103;52.076;113.488;2023-04-25T15:16:06;4.34;33.40
60242;SHT30;46103;52.076;113.488;2023-04-25T15:19:10;4.22;34.07
60242;SHT30;46103;52.076;113.488;2023-04-25T15:22:14;4.19;34.15
60242;SHT30;46103;52.076;113.488;2023-04-25T15:25:19;4.13;34.74
60242;SHT30;46103;52.076;113.488;2023-04-25T15:28:23;4.02;35.48
60242;SHT30;46103;52.076;113.488;2023-04-25T15:31:29;3.87;35.93
60242;SHT30;46103;52.076;113.488;2023-04-25T15:34:33;3.64;35.78
60242;SHT30;46103;52.076;113.488;2023-04-25T15:37:38;3.56;35.73
60242;SHT30;46103;52.076;113.488;2023-04-25T15:40:42;3.41;36.33
60242;SHT30;46103;52.076;113.488;2023-04-25T15:43:47;3.33;36.52
60242;SHT30;46103;52.076;113.488;2023-04-25T15:46:52;3.26;37.32
60242;SHT30;46103;52.076;113.488;2023-04-25T15:49:56;3.18;35.53
60242;SHT30;46103;52.076;113.488;2023-04-25T15:53:00;3.13;36.82
60242;SHT30;46103;52.076;113.488;2023-04-25T15:56:07;3.09;36.69
60242;SHT30;46103;52.076;113.488;2023-04-25T15:59:12;3.12;36.68
60242;SHT30;46103;52.076;113.488;2023-04-25T16:02:17;3.06;36.62
60242;SHT30;46103;52.076;113.488;2023-04-25T16:05:21;3.05;36.66
60242;SHT30;46103;52.076;113.488;2023-04-25T16:08:26;3.08;36.12
60242;SHT30;46103;52.076;113.488;2023-04-25T16:11:32;3.02;36.33
60242;SHT30;46103;52.076;113.488;2023-04-25T16:14:36;2.95;36.10
60242;SHT30;46103;52.076;113.488;2023-04-25T16:17:39;2.89;36.59
60242;SHT30;46103;52.076;113.488;2023-04-25T16:20:43;2.81;36.40
60242;SHT30;46103;52.076;113.488;2023-04-25T16:23:47;2.71;37.09
60242;SHT30;46103;52.076;113.488;2023-04-25T16:26:51;2.57;37.41
60242;SHT30;46103;52.076;113.488;2023-04-25T16:29:54;2.37;37.86
60242;SHT30;46103;52.076;113.488;2023-04-25T16:32:58;2.29;38.57
60242;SHT30;46103;52.076;113.488;2023-04-25T16:36:01;2.16;39.19
60242;SHT30;46103;52.076;113.488;2023-04-25T16:39:05;2.12;38.99
60242;SHT30;46103;52.076;113.488;2023-04-25T16:42:10;2.12;38.75
60242;SHT30;46103;52.076;113.488;2023-04-25T16:45:14;2.09;38.85
60242;SHT30;46103;52.076;113.488;2023-04-25T16:48:19;2.03;39.15
60242;SHT30;46103;52.076;113.488;2023-04-25T16:51:26;1.96;40.06
60242;SHT30;46103;52.076;113.488;2023-04-25T16:54:30;1.91;37.44
60242;SHT30;46103;52.076;113.488;2023-04-25T16:57:35;1.95;39.17
60242;SHT30;46103;52.076;113.488;2023-04-25T17:00:41;1.98;38.41
60242;SHT30;46103;52.076;113.488;2023-04-25T17:03:46;1.95;37.87
60242;SHT30;46103;52.076;113.488;2023-04-25T17:06:50;1.96;35.24
60242;SHT30;46103;52.076;113.488;2023-04-25T17:09:54;1.95;35.69
60242;SHT30;46103;52.076;113.488;2023-04-25T17:12:58;1.98;34.90
60242;SHT30;46103;52.076;113.488;2023-04-25T17:16:02;1.98;37.52
60242;SHT30;46103;52.076;113.488;2023-04-25T17:19:06;1.86;39.66
60242;SHT30;46103;52.076;113.488;2023-04-25T17:22:10;1.78;39.86
60242;SHT30;46103;52.076;113.488;2023-04-25T17:25:14;1.70;40.10
60242;SHT30;46103;52.076;113.488;2023-04-25T17:28:17;1.64;39.43
60242;SHT30;46103;52.076;113.488;2023-04-25T17:31:21;1.65;37.92
60242;SHT30;46103;52.076;113.488;2023-04-25T17:34:25;1.77;35.60
60242;SHT30;46103;52.076;113.488;2023-04-25T17:37:30;1.75;37.86
60242;SHT30;46103;52.076;113.488;2023-04-25T17:40:33;1.65;38.34
60242;SHT30;46103;52.076;113.488;2023-04-25T17:43:37;1.54;38.78
60242;SHT30;46103;52.076;113.488;2023-04-25T17:46:41;1.41;39.58
60242;SHT30;46103;52.076;113.488;2023-04-25T17:49:45;1.30;40.32
60242;SHT30;46103;52.076;113.488;2023-04-25T17:52:49;1.23;38.93
60242;SHT30;46103;52.076;113.488;2023-04-25T17:55:53;1.10;38.73
60242;SHT30;46103;52.076;113.488;2023-04-25T17:58:59;1.09;37.79
60242;SHT30;46103;52.076;113.488;2023-04-25T18:02:02;1.07;37.53
60242;SHT30;46103;52.076;113.488;2023-04-25T18:05:07;1.13;38.01
60242;SHT30;46103;52.076;113.488;2023-04-25T18:08:14;1.00;38.19
60242;SHT30;46103;52.076;113.488;2023-04-25T18:11:18;0.93;38.11
60242;SHT30;46103;52.076;113.488;2023-04-25T18:14:22;0.91;38.52
60242;SHT30;46103;52.076;113.488;2023-04-25T18:17:27;0.78;39.43
60242;SHT30;46103;52.076;113.488;2023-04-25T18:20:31;0.76;38.85
60242;SHT30;46103;52.076;113.488;2023-04-25T18:23:35;0.71;40.56
60242;SHT30;46103;52.076;113.488;2023-04-25T18:26:40;0.65;40.85
60242;SHT30;46103;52.076;113.488;2023-04-25T18:29:44;0.58;41.75
60242;SHT30;46103;52.076;113.488;2023-04-25T18:32:48;0.47;43.47
60242;SHT30;46103;52.076;113.488;2023-04-25T18:35:52;0.34;44.56
60242;SHT30;46103;52.076;113.488;2023-04-25T18:39:04;0.23;45.12
60242;SHT30;46103;52.076;113.488;2023-04-25T18:42:23;0.10;45.84
60242;SHT30;46103;52.076;113.488;2023-04-25T18:45:27;0.03;46.53
60242;SHT30;46103;52.076;113.488;2023-04-25T18:48:32;-0.08;47.11
60242;SHT30;46103;52.076;113.488;2023-04-25T18:51:35;-0.15;46.68
60242;SHT30;46103;52.076;113.488;2023-04-25T18:54:39;-0.23;46.93
60242;SHT30;46103;52.076;113.488;2023-04-25T18:57:43;-0.25;46.82
60242;SHT30;46103;52.076;113.488;2023-04-25T19:00:47;-0.29;47.10
60242;SHT30;46103;52.076;113.488;2023-04-25T19:03:51;-0.32;47.39
60242;SHT30;46103;52.076;113.488;2023-04-25T19:07:00;-0.35;47.38
60242;SHT30;46103;52.076;113.488;2023-04-25T19:10:03;-0.39;47.56
60242;SHT30;46103;52.076;113.488;2023-04-25T19:13:08;-0.45;47.92
60242;SHT30;46103;52.076;113.488;2023-04-25T19:16:12;-0.50;47.64